sensor_id;sensor_type;location;lat;lon;timestamp;P1;durP1;ratioP1;P2;durP2;ratioP2
20619;SDS011;10469;42.720;23.252;2022-09-09T00:00:40;13.90;;;10.90;;
20619;SDS011;10469;42.720;23.252;2022-09-09T00:05:47;18.95;;;9.75;;
20619;SDS011;10469;42.720;23.252;2022-09-09T00:08:34;13.55;;;9.98;;
20619;SDS011;10469;42.720;23.252;2022-09-09T00:11:07;17.15;;;9.77;;
20619;SDS011;10469;42.720;23.252;2022-09-09T00:13:39;12.05;;;9.50;;
20619;SDS011;10469;42.720;23.252;2022-09-09T00:16:20;12.90;;;9.65;;
20619;SDS011;10469;42.720;23.252;2022-09-09T00:24:43;16.52;;;9.93;;
20619;SDS011;10469;42.720;23.252;2022-09-09T00:27:16;19.77;;;10.30;;
20619;SDS011;10469;42.720;23.252;2022-09-09T00:32:27;19.45;;;11.23;;
20619;SDS011;10469;42.720;23.252;2022-09-09T00:34:56;14.05;;;10.55;;
20619;SDS011;10469;42.720;23.252;2022-09-09T00:37:29;19.67;;;11.25;;
20619;SDS011;10469;42.720;23.252;2022-09-09T00:39:57;13.82;;;10.48;;
20619;SDS011;10469;42.720;23.252;2022-09-09T00:42:36;13.05;;;10.13;;
20619;SDS011;10469;42.720;23.252;2022-09-09T00:45:16;12.02;;;9.65;;
20619;SDS011;10469;42.720;23.252;2022-09-09T00:47:55;13.88;;;10.43;;
20619;SDS011;10469;42.720;23.252;2022-09-09T00:56:30;14.00;;;10.98;;
20619;SDS011;10469;42.720;23.252;2022-09-09T01:01:35;15.73;;;10.30;;
20619;SDS011;10469;42.720;23.252;2022-09-09T01:04:01;13.73;;;10.38;;
20619;SDS011;10469;42.720;23.252;2022-09-09T01:06:38;12.57;;;9.98;;
20619;SDS011;10469;42.720;23.252;2022-09-09T01:09:18;14.38;;;11.00;;
20619;SDS011;10469;42.720;23.252;2022-09-09T01:14:49;15.02;;;10.80;;
20619;SDS011;10469;42.720;23.252;2022-09-09T01:17:39;14.27;;;10.57;;
20619;SDS011;10469;42.720;23.252;2022-09-09T01:20:15;13.65;;;11.00;;
20619;SDS011;10469;42.720;23.252;2022-09-09T01:26:03;13.48;;;11.02;;
20619;SDS011;10469;42.720;23.252;2022-09-09T01:28:37;15.98;;;10.23;;
20619;SDS011;10469;42.720;23.252;2022-09-09T01:31:04;21.58;;;11.27;;
20619;SDS011;10469;42.720;23.252;2022-09-09T01:33:31;12.80;;;11.20;;
20619;SDS011;10469;42.720;23.252;2022-09-09T01:35:58;14.23;;;10.50;;
20619;SDS011;10469;42.720;23.252;2022-09-09T01:38:29;15.10;;;10.82;;
20619;SDS011;10469;42.720;23.252;2022-09-09T01:40:56;12.40;;;10.65;;
20619;SDS011;10469;42.720;23.252;2022-09-09T01:43:23;13.48;;;11.27;;
20619;SDS011;10469;42.720;23.252;2022-09-09T01:45:51;12.50;;;10.65;;
20619;SDS011;10469;42.720;23.252;2022-09-09T01:48:19;13.77;;;11.52;;
20619;SDS011;10469;42.720;23.252;2022-09-09T01:50:47;13.40;;;10.52;;
20619;SDS011;10469;42.720;23.252;2022-09-09T01:53:13;13.35;;;10.32;;
20619;SDS011;10469;42.720;23.252;2022-09-09T01:55:42;14.85;;;10.95;;
20619;SDS011;10469;42.720;23.252;2022-09-09T02:03:57;15.13;;;11.23;;
20619;SDS011;10469;42.720;23.252;2022-09-09T02:08:57;13.02;;;11.50;;
20619;SDS011;10469;42.720;23.252;2022-09-09T02:11:26;13.80;;;11.32;;
20619;SDS011;10469;42.720;23.252;2022-09-09T02:13:59;14.00;;;11.73;;
20619;SDS011;10469;42.720;23.252;2022-09-09T02:16:35;11.52;;;10.32;;
20619;SDS011;10469;42.720;23.252;2022-09-09T02:21:38;14.48;;;11.32;;
20619;SDS011;10469;42.720;23.252;2022-09-09T02:24:06;12.63;;;11.15;;
20619;SDS011;10469;42.720;23.252;2022-09-09T02:26:35;16.55;;;11.57;;
20619;SDS011;10469;42.720;23.252;2022-09-09T02:29:06;15.18;;;11.43;;
20619;SDS011;10469;42.720;23.252;2022-09-09T02:31:36;16.83;;;11.13;;
20619;SDS011;10469;42.720;23.252;2022-09-09T02:34:03;16.65;;;11.10;;
20619;SDS011;10469;42.720;23.252;2022-09-09T02:36:31;13.38;;;11.65;;
20619;SDS011;10469;42.720;23.252;2022-09-09T02:38:59;13.43;;;10.27;;
20619;SDS011;10469;42.720;23.252;2022-09-09T02:41:27;18.42;;;11.95;;
20619;SDS011;10469;42.720;23.252;2022-09-09T02:43:57;14.30;;;11.57;;
20619;SDS011;10469;42.720;23.252;2022-09-09T02:46:36;14.82;;;12.23;;
20619;SDS011;10469;42.720;23.252;2022-09-09T02:49:18;16.52;;;11.30;;
20619;SDS011;10469;42.720;23.252;2022-09-09T02:52:00;13.20;;;11.00;;
20619;SDS011;10469;42.720;23.252;2022-09-09T02:54:34;18.05;;;11.63;;
20619;SDS011;10469;42.720;23.252;2022-09-09T02:57:13;18.20;;;11.73;;
20619;SDS011;10469;42.720;23.252;2022-09-09T02:59:43;13.65;;;12.23;;
20619;SDS011;10469;42.720;23.252;2022-09-09T03:02:10;22.63;;;12.27;;
20619;SDS011;10469;42.720;23.252;2022-09-09T03:04:37;21.00;;;12.13;;
20619;SDS011;10469;42.720;23.252;2022-09-09T03:07:04;16.42;;;11.80;;
20619;SDS011;10469;42.720;23.252;2022-09-09T03:09:30;15.77;;;11.88;;
20619;SDS011;10469;42.720;23.252;2022-09-09T03:11:57;15.73;;;11.80;;
20619;SDS011;10469;42.720;23.252;2022-09-09T03:14:23;16.48;;;12.20;;
20619;SDS011;10469;42.720;23.252;2022-09-09T03:16:52;15.20;;;12.60;;
20619;SDS011;10469;42.720;23.252;2022-09-09T03:19:18;25.98;;;12.95;;
20619;SDS011;10469;42.720;23.252;2022-09-09T03:21:45;19.85;;;14.38;;
20619;SDS011;10469;42.720;23.252;2022-09-09T03:24:11;14.05;;;12.15;;
20619;SDS011;10469;42.720;23.252;2022-09-09T03:26:38;20.55;;;12.57;;
20619;SDS011;10469;42.720;23.252;2022-09-09T03:29:05;12.80;;;11.60;;
20619;SDS011;10469;42.720;23.252;2022-09-09T03:31:33;19.40;;;12.65;;
20619;SDS011;10469;42.720;23.252;2022-09-09T03:34:00;13.98;;;11.95;;
20619;SDS011;10469;42.720;23.252;2022-09-09T03:36:27;21.30;;;12.23;;
20619;SDS011;10469;42.720;23.252;2022-09-09T03:38:56;15.25;;;12.45;;
20619;SDS011;10469;42.720;23.252;2022-09-09T03:41:25;24.17;;;13.00;;
20619;SDS011;10469;42.720;23.252;2022-09-09T03:43:51;14.93;;;12.20;;
20619;SDS011;10469;42.720;23.252;2022-09-09T03:46:17;17.45;;;13.18;;
20619;SDS011;10469;42.720;23.252;2022-09-09T03:48:43;17.70;;;13.15;;
20619;SDS011;10469;42.720;23.252;2022-09-09T03:51:09;22.23;;;13.75;;
20619;SDS011;10469;42.720;23.252;2022-09-09T03:53:35;25.50;;;13.40;;
20619;SDS011;10469;42.720;23.252;2022-09-09T03:56:03;23.83;;;14.35;;
20619;SDS011;10469;42.720;23.252;2022-09-09T03:58:32;22.85;;;13.80;;
20619;SDS011;10469;42.720;23.252;2022-09-09T04:01:00;27.40;;;14.00;;
20619;SDS011;10469;42.720;23.252;2022-09-09T04:03:27;16.65;;;14.45;;
20619;SDS011;10469;42.720;23.252;2022-09-09T04:05:53;21.45;;;14.00;;
20619;SDS011;10469;42.720;23.252;2022-09-09T04:08:20;19.95;;;13.88;;
20619;SDS011;10469;42.720;23.252;2022-09-09T04:10:47;23.13;;;15.02;;
20619;SDS011;10469;42.720;23.252;2022-09-09T04:13:15;26.70;;;15.40;;
20619;SDS011;10469;42.720;23.252;2022-09-09T04:15:42;24.23;;;14.75;;
20619;SDS011;10469;42.720;23.252;2022-09-09T04:18:09;18.63;;;13.57;;
20619;SDS011;10469;42.720;23.252;2022-09-09T04:20:35;28.48;;;13.85;;
20619;SDS011;10469;42.720;23.252;2022-09-09T04:23:00;23.73;;;16.00;;
20619;SDS011;10469;42.720;23.252;2022-09-09T04:25:27;19.75;;;15.02;;
20619;SDS011;10469;42.720;23.252;2022-09-09T04:27:55;20.30;;;13.55;;
20619;SDS011;10469;42.720;23.252;2022-09-09T04:30:21;20.30;;;13.32;;
20619;SDS011;10469;42.720;23.252;2022-09-09T04:32:48;18.48;;;13.07;;
20619;SDS011;10469;42.720;23.252;2022-09-09T04:35:14;30.63;;;13.50;;
20619;SDS011;10469;42.720;23.252;2022-09-09T04:37:40;18.23;;;13.13;;
20619;SDS011;10469;42.720;23.252;2022-09-09T04:40:06;17.23;;;13.15;;
20619;SDS011;10469;42.720;23.252;2022-09-09T04:42:38;29.48;;;13.93;;
20619;SDS011;10469;42.720;23.252;2022-09-09T04:45:07;19.73;;;14.55;;
20619;SDS011;10469;42.720;23.252;2022-09-09T04:47:36;18.67;;;13.35;;
20619;SDS011;10469;42.720;23.252;2022-09-09T04:50:02;20.38;;;12.68;;
20619;SDS011;10469;42.720;23.252;2022-09-09T04:52:28;17.25;;;12.65;;
20619;SDS011;10469;42.720;23.252;2022-09-09T04:54:53;26.38;;;13.75;;
20619;SDS011;10469;42.720;23.252;2022-09-09T04:57:19;20.48;;;12.70;;
20619;SDS011;10469;42.720;23.252;2022-09-09T04:59:45;18.20;;;12.80;;
20619;SDS011;10469;42.720;23.252;2022-09-09T05:02:11;20.70;;;12.25;;
20619;SDS011;10469;42.720;23.252;2022-09-09T05:04:37;14.05;;;11.45;;
20619;SDS011;10469;42.720;23.252;2022-09-09T05:07:02;25.45;;;11.70;;
20619;SDS011;10469;42.720;23.252;2022-09-09T05:09:28;22.00;;;11.88;;
20619;SDS011;10469;42.720;23.252;2022-09-09T05:11:54;28.30;;;12.00;;
20619;SDS011;10469;42.720;23.252;2022-09-09T05:14:21;18.40;;;12.07;;
20619;SDS011;10469;42.720;23.252;2022-09-09T05:16:47;16.77;;;11.45;;
20619;SDS011;10469;42.720;23.252;2022-09-09T05:19:14;13.80;;;10.70;;
20619;SDS011;10469;42.720;23.252;2022-09-09T05:21:40;21.13;;;11.88;;
20619;SDS011;10469;42.720;23.252;2022-09-09T05:24:06;17.83;;;11.35;;
20619;SDS011;10469;42.720;23.252;2022-09-09T05:26:32;27.67;;;12.45;;
20619;SDS011;10469;42.720;23.252;2022-09-09T05:28:58;28.17;;;11.52;;
20619;SDS011;10469;42.720;23.252;2022-09-09T05:31:25;19.40;;;11.55;;
20619;SDS011;10469;42.720;23.252;2022-09-09T05:33:52;22.95;;;12.05;;
20619;SDS011;10469;42.720;23.252;2022-09-09T05:36:19;24.20;;;11.07;;
20619;SDS011;10469;42.720;23.252;2022-09-09T05:38:46;23.40;;;12.00;;
20619;SDS011;10469;42.720;23.252;2022-09-09T05:41:12;19.25;;;10.30;;
20619;SDS011;10469;42.720;23.252;2022-09-09T05:43:40;22.30;;;10.55;;
20619;SDS011;10469;42.720;23.252;2022-09-09T05:46:16;17.15;;;12.20;;
20619;SDS011;10469;42.720;23.252;2022-09-09T05:48:44;17.88;;;14.00;;
20619;SDS011;10469;42.720;23.252;2022-09-09T05:51:12;20.15;;;10.38;;
20619;SDS011;10469;42.720;23.252;2022-09-09T05:53:43;19.10;;;11.38;;
20619;SDS011;10469;42.720;23.252;2022-09-09T05:56:10;28.58;;;12.02;;
20619;SDS011;10469;42.720;23.252;2022-09-09T05:58:39;18.65;;;10.70;;
20619;SDS011;10469;42.720;23.252;2022-09-09T06:03:32;22.77;;;11.25;;
20619;SDS011;10469;42.720;23.252;2022-09-09T06:06:00;18.00;;;11.05;;
20619;SDS011;10469;42.720;23.252;2022-09-09T06:08:26;15.85;;;11.07;;
20619;SDS011;10469;42.720;23.252;2022-09-09T06:10:53;23.08;;;12.05;;
20619;SDS011;10469;42.720;23.252;2022-09-09T06:13:19;29.65;;;10.75;;
20619;SDS011;10469;42.720;23.252;2022-09-09T06:15:51;25.38;;;11.75;;
20619;SDS011;10469;42.720;23.252;2022-09-09T06:18:17;20.17;;;11.02;;
20619;SDS011;10469;42.720;23.252;2022-09-09T06:20:53;16.60;;;10.40;;
20619;SDS011;10469;42.720;23.252;2022-09-09T06:23:32;21.58;;;10.70;;
20619;SDS011;10469;42.720;23.252;2022-09-09T06:26:01;19.50;;;11.10;;
20619;SDS011;10469;42.720;23.252;2022-09-09T06:28:31;19.98;;;10.63;;
20619;SDS011;10469;42.720;23.252;2022-09-09T06:30:58;18.45;;;11.35;;
20619;SDS011;10469;42.720;23.252;2022-09-09T06:33:24;17.67;;;10.75;;
20619;SDS011;10469;42.720;23.252;2022-09-09T06:35:51;20.85;;;11.07;;
20619;SDS011;10469;42.720;23.252;2022-09-09T06:38:18;15.82;;;10.13;;
20619;SDS011;10469;42.720;23.252;2022-09-09T06:40:50;17.13;;;11.18;;
20619;SDS011;10469;42.720;23.252;2022-09-09T06:43:20;19.38;;;10.73;;
20619;SDS011;10469;42.720;23.252;2022-09-09T06:46:21;19.15;;;10.95;;
20619;SDS011;10469;42.720;23.252;2022-09-09T06:51:19;25.95;;;10.70;;
20619;SDS011;10469;42.720;23.252;2022-09-09T06:53:53;20.23;;;9.38;;
20619;SDS011;10469;42.720;23.252;2022-09-09T06:56:24;22.85;;;9.55;;
20619;SDS011;10469;42.720;23.252;2022-09-09T06:58:54;16.98;;;8.82;;
20619;SDS011;10469;42.720;23.252;2022-09-09T07:01:22;13.00;;;9.45;;
20619;SDS011;10469;42.720;23.252;2022-09-09T07:03:51;13.10;;;9.18;;
20619;SDS011;10469;42.720;23.252;2022-09-09T07:06:23;16.23;;;9.38;;
20619;SDS011;10469;42.720;23.252;2022-09-09T07:08:55;21.60;;;9.18;;
20619;SDS011;10469;42.720;23.252;2022-09-09T07:11:29;20.77;;;9.00;;
20619;SDS011;10469;42.720;23.252;2022-09-09T07:13:57;20.77;;;9.57;;
20619;SDS011;10469;42.720;23.252;2022-09-09T07:16:24;16.85;;;7.95;;
20619;SDS011;10469;42.720;23.252;2022-09-09T07:18:51;17.75;;;9.48;;
20619;SDS011;10469;42.720;23.252;2022-09-09T07:21:18;16.90;;;9.15;;
20619;SDS011;10469;42.720;23.252;2022-09-09T07:23:44;18.52;;;8.90;;
20619;SDS011;10469;42.720;23.252;2022-09-09T07:26:10;14.90;;;8.77;;
20619;SDS011;10469;42.720;23.252;2022-09-09T07:28:38;16.95;;;9.57;;
20619;SDS011;10469;42.720;23.252;2022-09-09T07:31:05;13.23;;;9.63;;
20619;SDS011;10469;42.720;23.252;2022-09-09T07:33:33;16.70;;;8.63;;
20619;SDS011;10469;42.720;23.252;2022-09-09T07:36:07;15.10;;;8.23;;
20619;SDS011;10469;42.720;23.252;2022-09-09T07:38:57;20.98;;;7.57;;
20619;SDS011;10469;42.720;23.252;2022-09-09T07:41:41;12.48;;;7.88;;
20619;SDS011;10469;42.720;23.252;2022-09-09T07:44:09;13.45;;;7.57;;
20619;SDS011;10469;42.720;23.252;2022-09-09T07:46:40;16.88;;;7.32;;
20619;SDS011;10469;42.720;23.252;2022-09-09T07:49:07;15.63;;;6.40;;
20619;SDS011;10469;42.720;23.252;2022-09-09T07:51:54;16.52;;;7.57;;
20619;SDS011;10469;42.720;23.252;2022-09-09T07:54:20;14.80;;;7.25;;
20619;SDS011;10469;42.720;23.252;2022-09-09T07:56:48;13.43;;;8.35;;
20619;SDS011;10469;42.720;23.252;2022-09-09T07:59:15;13.52;;;7.78;;
20619;SDS011;10469;42.720;23.252;2022-09-09T08:01:42;16.50;;;7.57;;
20619;SDS011;10469;42.720;23.252;2022-09-09T08:06:44;11.95;;;7.32;;
20619;SDS011;10469;42.720;23.252;2022-09-09T08:09:11;21.27;;;8.02;;
20619;SDS011;10469;42.720;23.252;2022-09-09T08:11:38;13.75;;;7.07;;
20619;SDS011;10469;42.720;23.252;2022-09-09T08:14:05;16.88;;;7.55;;
20619;SDS011;10469;42.720;23.252;2022-09-09T08:16:33;12.80;;;7.00;;
20619;SDS011;10469;42.720;23.252;2022-09-09T08:19:03;13.55;;;7.38;;
20619;SDS011;10469;42.720;23.252;2022-09-09T08:21:30;15.38;;;6.93;;
20619;SDS011;10469;42.720;23.252;2022-09-09T08:23:58;14.20;;;6.65;;
20619;SDS011;10469;42.720;23.252;2022-09-09T08:26:30;12.15;;;6.75;;
20619;SDS011;10469;42.720;23.252;2022-09-09T08:28:58;15.23;;;6.93;;
20619;SDS011;10469;42.720;23.252;2022-09-09T08:33:53;17.88;;;6.68;;
20619;SDS011;10469;42.720;23.252;2022-09-09T08:36:20;13.88;;;6.22;;
20619;SDS011;10469;42.720;23.252;2022-09-09T08:38:52;11.93;;;6.47;;
20619;SDS011;10469;42.720;23.252;2022-09-09T08:49:55;12.77;;;6.38;;
20619;SDS011;10469;42.720;23.252;2022-09-09T08:52:31;16.55;;;7.13;;
20619;SDS011;10469;42.720;23.252;2022-09-09T08:57:52;11.60;;;5.78;;
20619;SDS011;10469;42.720;23.252;2022-09-09T09:00:21;11.60;;;5.95;;
20619;SDS011;10469;42.720;23.252;2022-09-09T09:11:26;11.82;;;6.25;;
20619;SDS011;10469;42.720;23.252;2022-09-09T09:19:03;13.82;;;6.78;;
20619;SDS011;10469;42.720;23.252;2022-09-09T09:21:43;14.20;;;6.40;;
20619;SDS011;10469;42.720;23.252;2022-09-09T09:24:16;12.80;;;6.03;;
20619;SDS011;10469;42.720;23.252;2022-09-09T09:26:45;16.00;;;6.63;;
20619;SDS011;10469;42.720;23.252;2022-09-09T09:29:20;17.15;;;6.43;;
20619;SDS011;10469;42.720;23.252;2022-09-09T09:31:53;19.52;;;6.25;;
20619;SDS011;10469;42.720;23.252;2022-09-09T09:34:24;16.65;;;6.25;;
20619;SDS011;10469;42.720;23.252;2022-09-09T09:36:54;15.48;;;6.80;;
20619;SDS011;10469;42.720;23.252;2022-09-09T09:39:26;10.10;;;6.85;;
20619;SDS011;10469;42.720;23.252;2022-09-09T09:41:55;17.38;;;7.10;;
20619;SDS011;10469;42.720;23.252;2022-09-09T09:46:53;9.65;;;6.60;;
20619;SDS011;10469;42.720;23.252;2022-09-09T09:49:30;10.77;;;6.55;;
20619;SDS011;10469;42.720;23.252;2022-09-09T09:52:01;11.82;;;6.78;;
20619;SDS011;10469;42.720;23.252;2022-09-09T09:54:32;15.00;;;6.57;;
20619;SDS011;10469;42.720;23.252;2022-09-09T09:57:09;12.85;;;6.70;;
20619;SDS011;10469;42.720;23.252;2022-09-09T09:59:36;16.10;;;6.88;;
20619;SDS011;10469;42.720;23.252;2022-09-09T10:02:23;20.42;;;7.18;;
20619;SDS011;10469;42.720;23.252;2022-09-09T10:05:02;10.82;;;6.72;;
20619;SDS011;10469;42.720;23.252;2022-09-09T10:07:47;16.67;;;7.38;;
20619;SDS011;10469;42.720;23.252;2022-09-09T10:10:26;14.73;;;7.38;;
20619;SDS011;10469;42.720;23.252;2022-09-09T10:15:46;14.30;;;7.57;;
20619;SDS011;10469;42.720;23.252;2022-09-09T10:20:59;16.20;;;7.45;;
20619;SDS011;10469;42.720;23.252;2022-09-09T10:23:56;33.15;;;8.18;;
20619;SDS011;10469;42.720;23.252;2022-09-09T10:26:27;17.67;;;7.85;;
20619;SDS011;10469;42.720;23.252;2022-09-09T10:29:07;18.38;;;7.72;;
20619;SDS011;10469;42.720;23.252;2022-09-09T10:31:54;14.00;;;7.65;;
20619;SDS011;10469;42.720;23.252;2022-09-09T10:37:41;20.15;;;8.63;;
20619;SDS011;10469;42.720;23.252;2022-09-09T10:43:20;17.45;;;8.07;;
20619;SDS011;10469;42.720;23.252;2022-09-09T10:48:52;16.48;;;7.88;;
20619;SDS011;10469;42.720;23.252;2022-09-09T10:54:20;17.52;;;7.60;;
20619;SDS011;10469;42.720;23.252;2022-09-09T10:59:58;24.35;;;8.50;;
20619;SDS011;10469;42.720;23.252;2022-09-09T11:02:32;18.42;;;7.88;;
20619;SDS011;10469;42.720;23.252;2022-09-09T11:08:09;14.05;;;7.57;;
20619;SDS011;10469;42.720;23.252;2022-09-09T11:10:22;16.90;;;6.93;;
20619;SDS011;10469;42.720;23.252;2022-09-09T11:13:14;13.90;;;6.93;;
20619;SDS011;10469;42.720;23.252;2022-09-09T11:15:46;23.65;;;7.43;;
20619;SDS011;10469;42.720;23.252;2022-09-09T11:18:19;13.45;;;7.70;;
20619;SDS011;10469;42.720;23.252;2022-09-09T11:20:59;16.80;;;7.37;;
20619;SDS011;10469;42.720;23.252;2022-09-09T11:23:39;17.25;;;7.03;;
20619;SDS011;10469;42.720;23.252;2022-09-09T11:26:12;15.48;;;7.25;;
20619;SDS011;10469;42.720;23.252;2022-09-09T11:32:03;21.23;;;7.18;;
20619;SDS011;10469;42.720;23.252;2022-09-09T11:35:01;15.60;;;7.95;;
20619;SDS011;10469;42.720;23.252;2022-09-09T11:37:53;12.93;;;8.10;;
20619;SDS011;10469;42.720;23.252;2022-09-09T11:40:26;17.45;;;7.63;;
20619;SDS011;10469;42.720;23.252;2022-09-09T11:43:12;16.98;;;6.97;;
20619;SDS011;10469;42.720;23.252;2022-09-09T11:45:54;13.63;;;7.18;;
20619;SDS011;10469;42.720;23.252;2022-09-09T11:51:04;12.55;;;7.57;;
20619;SDS011;10469;42.720;23.252;2022-09-09T11:53:35;15.32;;;6.80;;
20619;SDS011;10469;42.720;23.252;2022-09-09T11:56:13;12.90;;;8.07;;
20619;SDS011;10469;42.720;23.252;2022-09-09T11:58:55;18.48;;;7.07;;
20619;SDS011;10469;42.720;23.252;2022-09-09T12:01:45;11.40;;;6.63;;
20619;SDS011;10469;42.720;23.252;2022-09-09T12:04:37;13.45;;;7.40;;
20619;SDS011;10469;42.720;23.252;2022-09-09T12:12:34;13.95;;;6.75;;
20619;SDS011;10469;42.720;23.252;2022-09-09T12:17:44;14.35;;;7.22;;
20619;SDS011;10469;42.720;23.252;2022-09-09T12:20:26;13.70;;;7.40;;
20619;SDS011;10469;42.720;23.252;2022-09-09T12:28:20;12.60;;;7.85;;
20619;SDS011;10469;42.720;23.252;2022-09-09T12:33:32;12.30;;;7.63;;
20619;SDS011;10469;42.720;23.252;2022-09-09T12:36:19;22.55;;;7.50;;
20619;SDS011;10469;42.720;23.252;2022-09-09T12:38:53;13.70;;;7.80;;
20619;SDS011;10469;42.720;23.252;2022-09-09T12:41:25;14.48;;;8.43;;
20619;SDS011;10469;42.720;23.252;2022-09-09T12:44:06;11.88;;;7.45;;
20619;SDS011;10469;42.720;23.252;2022-09-09T12:46:39;16.90;;;8.00;;
20619;SDS011;10469;42.720;23.252;2022-09-09T12:49:23;15.05;;;6.97;;
20619;SDS011;10469;42.720;23.252;2022-09-09T12:51:50;12.18;;;6.70;;
20619;SDS011;10469;42.720;23.252;2022-09-09T12:54:16;14.32;;;5.53;;
20619;SDS011;10469;42.720;23.252;2022-09-09T12:56:45;14.50;;;6.05;;
20619;SDS011;10469;42.720;23.252;2022-09-09T12:59:26;10.18;;;6.57;;
20619;SDS011;10469;42.720;23.252;2022-09-09T13:02:21;17.25;;;9.05;;
20619;SDS011;10469;42.720;23.252;2022-09-09T13:04:49;14.18;;;5.68;;
20619;SDS011;10469;42.720;23.252;2022-09-09T13:07:17;12.93;;;6.10;;
20619;SDS011;10469;42.720;23.252;2022-09-09T13:09:44;13.23;;;5.80;;
20619;SDS011;10469;42.720;23.252;2022-09-09T13:12:18;10.23;;;6.05;;
20619;SDS011;10469;42.720;23.252;2022-09-09T13:14:54;11.43;;;6.07;;
20619;SDS011;10469;42.720;23.252;2022-09-09T13:19:47;15.45;;;5.72;;
20619;SDS011;10469;42.720;23.252;2022-09-09T13:22:31;14.13;;;5.30;;
20619;SDS011;10469;42.720;23.252;2022-09-09T13:27:59;8.93;;;5.85;;
20619;SDS011;10469;42.720;23.252;2022-09-09T13:30:36;11.63;;;6.38;;
20619;SDS011;10469;42.720;23.252;2022-09-09T13:38:20;13.23;;;6.90;;
20619;SDS011;10469;42.720;23.252;2022-09-09T13:41:20;12.15;;;6.70;;
20619;SDS011;10469;42.720;23.252;2022-09-09T13:43:46;9.00;;;6.03;;
20619;SDS011;10469;42.720;23.252;2022-09-09T13:48:55;12.70;;;6.50;;
20619;SDS011;10469;42.720;23.252;2022-09-09T13:51:39;12.10;;;6.03;;
20619;SDS011;10469;42.720;23.252;2022-09-09T13:54:10;9.43;;;6.07;;
20619;SDS011;10469;42.720;23.252;2022-09-09T13:56:39;13.05;;;6.25;;
20619;SDS011;10469;42.720;23.252;2022-09-09T13:59:08;18.33;;;6.35;;
20619;SDS011;10469;42.720;23.252;2022-09-09T14:01:36;14.30;;;6.40;;
20619;SDS011;10469;42.720;23.252;2022-09-09T14:04:02;12.73;;;5.35;;
20619;SDS011;10469;42.720;23.252;2022-09-09T14:06:29;21.63;;;6.35;;
20619;SDS011;10469;42.720;23.252;2022-09-09T14:08:55;10.40;;;6.03;;
20619;SDS011;10469;42.720;23.252;2022-09-09T14:11:21;17.67;;;6.28;;
20619;SDS011;10469;42.720;23.252;2022-09-09T14:13:47;17.15;;;5.85;;
20619;SDS011;10469;42.720;23.252;2022-09-09T14:16:15;10.35;;;5.63;;
20619;SDS011;10469;42.720;23.252;2022-09-09T14:18:42;10.35;;;6.05;;
20619;SDS011;10469;42.720;23.252;2022-09-09T14:21:09;12.20;;;6.05;;
20619;SDS011;10469;42.720;23.252;2022-09-09T14:23:35;8.52;;;5.82;;
20619;SDS011;10469;42.720;23.252;2022-09-09T14:26:01;15.60;;;6.80;;
20619;SDS011;10469;42.720;23.252;2022-09-09T14:28:27;17.75;;;6.00;;
20619;SDS011;10469;42.720;23.252;2022-09-09T14:30:53;18.58;;;8.90;;
20619;SDS011;10469;42.720;23.252;2022-09-09T14:33:19;14.10;;;6.10;;
20619;SDS011;10469;42.720;23.252;2022-09-09T14:35:45;11.40;;;5.25;;
20619;SDS011;10469;42.720;23.252;2022-09-09T14:38:10;9.27;;;5.90;;
20619;SDS011;10469;42.720;23.252;2022-09-09T14:40:36;16.63;;;5.70;;
20619;SDS011;10469;42.720;23.252;2022-09-09T14:43:03;12.90;;;6.55;;
20619;SDS011;10469;42.720;23.252;2022-09-09T14:45:30;17.20;;;6.05;;
20619;SDS011;10469;42.720;23.252;2022-09-09T14:47:56;14.52;;;5.95;;
20619;SDS011;10469;42.720;23.252;2022-09-09T14:50:22;12.98;;;6.60;;
20619;SDS011;10469;42.720;23.252;2022-09-09T14:52:48;14.50;;;6.63;;
20619;SDS011;10469;42.720;23.252;2022-09-09T14:55:15;21.90;;;6.85;;
20619;SDS011;10469;42.720;23.252;2022-09-09T14:57:42;16.30;;;6.82;;
20619;SDS011;10469;42.720;23.252;2022-09-09T15:00:09;11.90;;;7.07;;
20619;SDS011;10469;42.720;23.252;2022-09-09T15:02:36;13.68;;;7.22;;
20619;SDS011;10469;42.720;23.252;2022-09-09T15:05:03;10.25;;;5.80;;
20619;SDS011;10469;42.720;23.252;2022-09-09T15:07:29;9.95;;;6.47;;
20619;SDS011;10469;42.720;23.252;2022-09-09T15:09:57;15.05;;;6.03;;
20619;SDS011;10469;42.720;23.252;2022-09-09T15:12:23;15.13;;;6.05;;
20619;SDS011;10469;42.720;23.252;2022-09-09T15:14:49;15.00;;;5.95;;
20619;SDS011;10469;42.720;23.252;2022-09-09T15:17:15;15.88;;;5.40;;
20619;SDS011;10469;42.720;23.252;2022-09-09T15:19:41;12.20;;;5.70;;
20619;SDS011;10469;42.720;23.252;2022-09-09T15:22:07;10.90;;;6.00;;
20619;SDS011;10469;42.720;23.252;2022-09-09T15:24:33;17.85;;;6.68;;
20619;SDS011;10469;42.720;23.252;2022-09-09T15:27:00;10.68;;;5.50;;
20619;SDS011;10469;42.720;23.252;2022-09-09T15:29:26;14.48;;;5.75;;
20619;SDS011;10469;42.720;23.252;2022-09-09T15:31:53;18.80;;;5.60;;
20619;SDS011;10469;42.720;23.252;2022-09-09T15:34:21;11.95;;;5.55;;
20619;SDS011;10469;42.720;23.252;2022-09-09T15:36:47;15.10;;;6.75;;
20619;SDS011;10469;42.720;23.252;2022-09-09T15:39:17;12.90;;;6.18;;
20619;SDS011;10469;42.720;23.252;2022-09-09T15:41:44;19.02;;;6.50;;
20619;SDS011;10469;42.720;23.252;2022-09-09T15:44:10;12.90;;;6.50;;
20619;SDS011;10469;42.720;23.252;2022-09-09T15:46:41;11.77;;;6.57;;
20619;SDS011;10469;42.720;23.252;2022-09-09T15:49:18;13.05;;;6.55;;
20619;SDS011;10469;42.720;23.252;2022-09-09T15:51:50;12.63;;;6.50;;
20619;SDS011;10469;42.720;23.252;2022-09-09T15:54:30;14.32;;;7.05;;
20619;SDS011;10469;42.720;23.252;2022-09-09T15:56:59;13.75;;;6.65;;
20619;SDS011;10469;42.720;23.252;2022-09-09T15:59:27;11.60;;;6.35;;
20619;SDS011;10469;42.720;23.252;2022-09-09T16:01:54;12.68;;;6.63;;
20619;SDS011;10469;42.720;23.252;2022-09-09T16:04:21;17.63;;;6.90;;
20619;SDS011;10469;42.720;23.252;2022-09-09T16:06:51;12.40;;;6.97;;
20619;SDS011;10469;42.720;23.252;2022-09-09T16:09:18;18.83;;;6.70;;
20619;SDS011;10469;42.720;23.252;2022-09-09T16:11:44;15.85;;;6.90;;
20619;SDS011;10469;42.720;23.252;2022-09-09T16:14:12;9.27;;;6.47;;
20619;SDS011;10469;42.720;23.252;2022-09-09T16:16:38;14.98;;;7.05;;
20619;SDS011;10469;42.720;23.252;2022-09-09T16:19:07;13.45;;;7.18;;
20619;SDS011;10469;42.720;23.252;2022-09-09T16:21:42;13.32;;;7.53;;
20619;SDS011;10469;42.720;23.252;2022-09-09T16:24:10;16.65;;;7.25;;
20619;SDS011;10469;42.720;23.252;2022-09-09T16:26:40;11.93;;;6.53;;
20619;SDS011;10469;42.720;23.252;2022-09-09T16:29:09;16.23;;;8.43;;
20619;SDS011;10469;42.720;23.252;2022-09-09T16:31:35;13.63;;;8.10;;
20619;SDS011;10469;42.720;23.252;2022-09-09T16:34:01;11.65;;;7.18;;
20619;SDS011;10469;42.720;23.252;2022-09-09T16:36:29;22.23;;;8.23;;
20619;SDS011;10469;42.720;23.252;2022-09-09T16:38:57;12.85;;;8.32;;
20619;SDS011;10469;42.720;23.252;2022-09-09T16:41:25;13.77;;;7.97;;
20619;SDS011;10469;42.720;23.252;2022-09-09T16:43:56;12.63;;;7.82;;
20619;SDS011;10469;42.720;23.252;2022-09-09T16:46:24;14.65;;;7.65;;
20619;SDS011;10469;42.720;23.252;2022-09-09T16:49:08;14.55;;;7.53;;